Time;durP1;ratioP1;P1;durP2;ratioP2;P2;SDS_P1;SDS_P2;PMS_P1;PMS_P2;Temp;Humidity;BMP_temperature;BMP_pressure;BME280_temperature;BME280_humidity;BME280_pressure;Samples;Min_cycle;Max_cycle;Signal;HPM_P1;HPM_P2
2022/10/08 00:00:45;;;;;;;20.40;16.35;;;;;;;12.05;100.00;101061.53;4973134;28;20097;-66
2022/10/08 00:03:13;;;;;;;20.67;17.10;;;;;;;11.89;100.00;101043.13;4986133;28;20038;-65
2022/10/08 00:05:39;;;;;;;21.75;16.80;;;;;;;11.88;100.00;101051.31;4992541;28;20034;-66
2022/10/08 00:08:05;;;;;;;21.95;16.83;;;;;;;11.78;100.00;101036.91;4992430;28;20052;-66
2022/10/08 00:10:31;;;;;;;22.00;16.95;;;;;;;11.87;100.00;101054.97;4990992;28;20572;-65
2022/10/08 00:12:58;;;;;;;19.77;16.45;;;;;;;11.69;100.00;101032.28;4992377;28;20062;-65
2022/10/08 00:15:24;;;;;;;20.58;16.95;;;;;;;11.70;100.00;101034.00;4992278;28;20041;-66
2022/10/08 00:17:50;;;;;;;20.85;16.13;;;;;;;11.65;100.00;101034.38;4992121;28;20033;-65
2022/10/08 00:20:16;;;;;;;22.08;16.30;;;;;;;11.70;100.00;101047.44;4992138;28;20066;-66
2022/10/08 00:22:41;;;;;;;18.67;15.88;;;;;;;11.55;100.00;101030.69;4990891;28;20049;-66
2022/10/08 00:25:07;;;;;;;24.42;17.38;;;;;;;11.55;100.00;101033.38;4992073;28;20032;-65
2022/10/08 00:27:33;;;;;;;19.80;15.50;;;;;;;11.51;100.00;101031.88;4990740;28;20038;-66
2022/10/08 00:29:59;;;;;;;20.58;16.20;;;;;;;11.41;100.00;101015.66;4991958;28;20117;-66
2022/10/08 00:32:24;;;;;;;21.08;16.27;;;;;;;11.38;100.00;101015.91;4991910;28;20018;-66
2022/10/08 00:34:50;;;;;;;19.45;16.40;;;;;;;11.43;100.00;101024.47;4991954;28;20040;-65
2022/10/08 00:37:15;;;;;;;23.05;15.98;;;;;;;11.20;100.00;100993.22;4991678;28;20018;-66
2022/10/08 00:39:41;;;;;;;22.83;17.00;;;;;;;11.27;100.00;101013.25;4991714;28;20042;-66
2022/10/08 00:42:09;;;;;;;19.88;16.27;;;;;;;11.23;100.00;101009.06;4991710;28;20061;-65
2022/10/08 00:44:52;;;;;;;22.35;16.00;;;;;;;11.30;100.00;101023.75;4991725;28;20411;-66
2022/10/08 00:47:47;;;;;;;19.08;16.20;;;;;;;11.25;100.00;101023.22;4990708;28;20613;-77
2022/10/08 00:50:31;;;;;;;20.25;16.70;;;;;;;11.22;100.00;101018.09;4992372;28;20331;-77
2022/10/08 00:53:04;;;;;;;21.25;16.05;;;;;;;11.13;100.00;101008.09;4993425;28;20388;-77
2022/10/08 00:55:30;;;;;;;19.38;15.43;;;;;;;11.14;100.00;101008.97;4993342;28;20385;-77
2022/10/08 00:58:00;;;;;;;19.45;15.60;;;;;;;11.09;100.00;100995.03;4993015;28;20038;-77
2022/10/08 01:00:26;;;;;;;23.08;15.77;;;;;;;11.04;100.00;100991.88;4992683;28;20031;-77
2022/10/08 01:02:52;;;;;;;21.95;16.60;;;;;;;11.11;100.00;101007.38;4991645;28;20113;-77
2022/10/08 01:05:26;;;;;;;21.73;16.42;;;;;;;11.06;100.00;100998.00;4993071;28;20018;-77
2022/10/08 01:08:12;;;;;;;24.70;16.70;;;;;;;11.00;100.00;100995.78;4993066;28;20037;-77
2022/10/08 01:10:42;;;;;;;22.85;17.80;;;;;;;11.04;100.00;100999.91;4989748;28;20188;-65
2022/10/08 01:13:40;;;;;;;25.60;18.48;;;;;;;11.05;100.00;100999.81;4989893;28;20560;-65
2022/10/08 01:16:30;;;;;;;24.58;18.90;;;;;;;11.05;100.00;100989.06;4991281;28;20470;-66
2022/10/08 01:19:14;;;;;;;25.10;19.73;;;;;;;11.06;100.00;100990.75;4970606;28;20089;-66
2022/10/08 01:21:52;;;;;;;24.67;19.25;;;;;;;11.05;100.00;100983.69;4971588;28;20739;-65
2022/10/08 01:27:31;;;;;;;29.42;19.60;;;;;;;11.00;100.00;100977.81;4991080;28;20041;-66
2022/10/08 01:30:04;;;;;;;24.60;18.45;;;;;;;11.03;100.00;100982.13;4996637;28;20029;-65
2022/10/08 01:32:40;;;;;;;23.50;18.95;;;;;;;10.99;100.00;100978.81;5010441;28;20022;-77
2022/10/08 01:35:29;;;;;;;26.63;19.67;;;;;;;10.99;100.00;100975.25;5010706;28;20046;-77
2022/10/08 01:37:59;;;;;;;25.58;19.48;;;;;;;10.89;100.00;100959.03;4997747;28;20549;-77
2022/10/08 01:40:31;;;;;;;26.52;19.90;;;;;;;10.94;100.00;100970.25;4991695;28;20019;-77
2022/10/08 01:42:59;;;;;;;26.92;19.70;;;;;;;10.80;100.00;100949.03;4990369;28;20049;-76
2022/10/08 01:45:33;;;;;;;22.30;18.52;;;;;;;10.94;100.00;100967.56;4991594;28;20042;-77
2022/10/08 01:48:05;;;;;;;23.30;16.80;;;;;;;10.88;100.00;100956.47;4991585;28;20038;-77
2022/10/08 01:50:51;;;;;;;21.58;18.50;;;;;;;10.86;100.00;100951.22;4991426;28;20481;-77
2022/10/08 01:53:18;;;;;;;21.42;17.48;;;;;;;10.76;100.00;100942.19;4990224;28;20030;-77
2022/10/08 01:55:51;;;;;;;22.13;18.17;;;;;;;10.81;100.00;100957.94;4991692;28;20033;-77
2022/10/08 01:58:56;;;;;;;23.35;18.33;;;;;;;10.82;100.00;100965.00;4991175;28;20030;-77
2022/10/08 02:01:51;;;;;;;21.77;16.77;;;;;;;10.82;100.00;100967.69;4991014;28;20539;-77
2022/10/08 02:04:33;;;;;;;22.10;17.02;;;;;;;10.75;100.00;100953.06;4990931;28;20283;-77
2022/10/08 02:07:15;;;;;;;22.08;17.15;;;;;;;10.65;100.00;100938.66;4991487;28;20037;-77
2022/10/08 02:09:46;;;;;;;22.08;18.17;;;;;;;10.74;100.00;100948.66;4991555;28;20125;-77
2022/10/08 02:12:13;;;;;;;25.77;18.23;;;;;;;10.71;100.00;100952.44;4995541;28;20038;-65
2022/10/08 02:14:47;;;;;;;23.48;17.55;;;;;;;10.63;100.00;100933.41;4992588;28;20030;-66
2022/10/08 02:17:12;;;;;;;24.13;17.83;;;;;;;10.71;100.00;100957.78;4994538;28;20030;-65
2022/10/08 02:19:59;;;;;;;25.23;18.52;;;;;;;10.70;100.00;100953.41;4994532;28;20116;-66
2022/10/08 02:22:32;;;;;;;20.25;17.25;;;;;;;10.68;100.00;100946.47;4994496;28;20048;-65
2022/10/08 02:25:10;;;;;;;23.95;18.58;;;;;;;10.64;100.00;100943.16;4994616;28;20061;-66
2022/10/08 02:28:08;;;;;;;23.23;18.15;;;;;;;10.67;100.00;100953.66;4993183;28;20057;-65
2022/10/08 02:30:53;;;;;;;30.60;19.73;;;;;;;10.59;100.00;100937.31;4993681;28;20061;-66
2022/10/08 02:33:28;;;;;;;20.95;17.88;;;;;;;10.61;100.00;100946.06;4992550;28;20473;-66
2022/10/08 02:35:58;;;;;;;25.83;18.88;;;;;;;10.49;100.00;100919.38;4994128;28;20063;-66
2022/10/08 02:38:50;;;;;;;22.65;18.55;;;;;;;10.61;100.00;100954.13;4992833;28;20034;-66
2022/10/08 02:41:19;;;;;;;24.85;19.10;;;;;;;10.60;100.00;100948.88;4993525;28;20074;-66
2022/10/08 02:43:48;;;;;;;26.42;19.92;;;;;;;10.44;100.00;100924.22;4993611;28;20521;-65
2022/10/08 02:46:20;;;;;;;24.08;19.38;;;;;;;10.57;100.00;100943.75;4993650;28;20041;-66
2022/10/08 02:48:56;;;;;;;26.67;18.75;;;;;;;10.57;100.00;100951.78;4993749;28;20050;-66
2022/10/08 02:51:23;;;;;;;23.83;19.98;;;;;;;10.43;100.00;100931.44;4992246;28;20088;-66
2022/10/08 02:53:49;;;;;;;24.50;18.38;;;;;;;10.50;100.00;100946.06;4992577;28;20048;-76
2022/10/08 02:56:23;;;;;;;22.83;18.73;;;;;;;10.49;100.00;100949.72;4994901;28;20389;-77
2022/10/08 02:58:49;;;;;;;25.77;18.52;;;;;;;10.32;100.00;100936.75;4990028;28;20026;-77
2022/10/08 03:01:25;;;;;;;24.00;18.48;;;;;;;10.44;100.00;100945.66;4995009;28;20173;-77
2022/10/08 03:04:02;;;;;;;24.50;19.35;;;;;;;10.44;100.00;100951.91;4994398;28;20030;-76
2022/10/08 03:06:28;;;;;;;25.77;18.13;;;;;;;10.32;100.00;100923.34;4994765;28;20026;-76
2022/10/08 03:08:57;;;;;;;26.92;19.25;;;;;;;10.42;100.00;100943.09;4993725;28;20061;-66
2022/10/08 03:11:23;;;;;;;20.15;17.65;;;;;;;10.35;100.00;100928.47;4993057;28;20044;-66
2022/10/08 03:13:50;;;;;;;23.55;19.17;;;;;;;10.50;100.00;100948.75;4993668;28;20038;-77
2022/10/08 03:16:20;;;;;;;26.75;18.90;;;;;;;10.46;100.00;100931.19;4994499;28;20615;-76
2022/10/08 03:18:46;;;;;;;23.75;18.58;;;;;;;10.58;100.00;100937.44;4994941;28;20069;-75
2022/10/08 03:21:13;;;;;;;26.13;19.52;;;;;;;10.62;100.00;100939.75;4990436;28;20105;-75
2022/10/08 03:23:39;;;;;;;22.88;17.77;;;;;;;10.65;100.00;100944.88;4974795;28;20039;-75
2022/10/08 03:26:04;;;;;;;26.48;19.83;;;;;;;10.64;100.00;100937.78;4986778;28;20473;-75
2022/10/08 03:28:30;;;;;;;23.58;18.95;;;;;;;10.67;100.00;100942.06;4987720;28;20038;-75
2022/10/08 03:30:55;;;;;;;22.75;18.15;;;;;;;10.69;100.00;100940.97;4994456;28;20022;-75
2022/10/08 03:33:21;;;;;;;24.13;18.48;;;;;;;10.70;100.00;100929.25;4994375;28;20064;-75
2022/10/08 03:35:47;;;;;;;22.65;18.73;;;;;;;10.74;100.00;100936.09;4994524;28;20381;-75
2022/10/08 03:38:16;;;;;;;22.65;19.33;;;;;;;10.74;100.00;100919.16;4994574;28;20033;-75
2022/10/08 03:40:42;;;;;;;25.77;20.45;;;;;;;10.88;100.00;100943.06;4994698;28;20030;-75
2022/10/08 03:43:08;;;;;;;29.10;20.20;;;;;;;10.88;100.00;100941.25;4993990;28;20058;-75
2022/10/08 03:45:33;;;;;;;22.83;18.90;;;;;;;10.86;100.00;100943.19;4994396;28;20101;-75
2022/10/08 03:47:59;;;;;;;23.67;18.48;;;;;;;10.83;100.00;100939.88;4994332;28;20493;-75
2022/10/08 03:50:25;;;;;;;24.17;18.50;;;;;;;10.82;100.00;100936.34;4993945;28;20034;-75
2022/10/08 03:52:50;;;;;;;24.80;19.70;;;;;;;10.80;100.00;100937.47;4994012;28;20038;-75
2022/10/08 03:55:16;;;;;;;27.38;18.90;;;;;;;10.72;100.00;100919.28;4991867;28;20035;-64
2022/10/08 03:57:41;;;;;;;27.50;18.58;;;;;;;10.73;100.00;100920.97;4991779;28;20018;-65
2022/10/08 04:00:07;;;;;;;31.02;19.85;;;;;;;10.70;100.00;100914.97;4991395;28;20125;-65
2022/10/08 04:02:33;;;;;;;30.25;18.63;;;;;;;10.76;100.00;100935.97;4979985;28;20401;-65
2022/10/08 04:04:58;;;;;;;28.65;19.48;;;;;;;10.72;100.00;100934.50;4985003;28;20030;-65
2022/10/08 04:07:23;;;;;;;23.40;18.08;;;;;;;10.65;100.00;100922.56;4979681;28;20117;-65
2022/10/08 04:09:49;;;;;;;23.55;17.20;;;;;;;10.64;100.00;100927.06;4982508;28;20027;-75
2022/10/08 04:12:14;;;;;;;24.35;17.70;;;;;;;10.61;100.00;100926.47;5000316;28;20023;-75
2022/10/08 04:14:40;;;;;;;27.90;18.17;;;;;;;10.44;100.00;100902.75;4984095;28;20413;-75
2022/10/08 04:17:05;;;;;;;27.63;18.00;;;;;;;10.46;100.00;100907.06;4995687;28;20029;-75
2022/10/08 04:19:31;;;;;;;28.08;17.88;;;;;;;10.50;100.00;100927.28;5011603;28;20029;-75
2022/10/08 04:21:56;;;;;;;22.48;17.38;;;;;;;10.45;100.00;100921.41;5010334;28;20020;-75
2022/10/08 04:24:22;;;;;;;27.40;16.73;;;;;;;10.43;100.00;100923.38;4989507;28;20041;-75
2022/10/08 04:26:47;;;;;;;22.50;16.10;;;;;;;10.29;100.00;100903.97;4990475;28;20274;-75
2022/10/08 04:29:13;;;;;;;23.60;18.10;;;;;;;10.43;100.00;100928.75;4990201;28;20034;-75
2022/10/08 04:31:39;;;;;;;25.45;17.40;;;;;;;10.19;100.00;100886.91;4991096;28;20113;-77
2022/10/08 04:34:04;;;;;;;25.92;16.30;;;;;;;10.35;100.00;100912.38;4990394;28;20064;-77
2022/10/08 04:36:30;;;;;;;30.33;18.00;;;;;;;10.42;100.00;100924.34;4997886;28;20030;-78
2022/10/08 04:38:55;;;;;;;25.25;16.83;;;;;;;10.49;100.00;100928.28;5003835;28;20089;-76
2022/10/08 04:41:25;;;;;;;23.35;16.50;;;;;;;10.52;100.00;100928.03;5001782;28;20114;-76
2022/10/08 04:43:52;;;;;;;25.63;17.77;;;;;;;10.55;100.00;100921.56;4996021;28;20516;-75
2022/10/08 04:46:19;;;;;;;25.02;18.40;;;;;;;10.56;100.00;100932.19;5006278;28;20026;-76
2022/10/08 04:48:55;;;;;;;21.48;16.85;;;;;;;10.60;100.00;100928.28;5003393;28;20038;-76
2022/10/08 04:51:23;;;;;;;22.23;16.85;;;;;;;10.63;100.00;100921.81;4991070;28;20433;-76
2022/10/08 04:53:49;;;;;;;21.75;17.55;;;;;;;10.52;100.00;100903.91;5018443;28;20038;-75
2022/10/08 04:56:20;;;;;;;22.42;17.17;;;;;;;10.69;100.00;100924.03;4992019;28;20034;-76
2022/10/08 04:58:46;;;;;;;21.25;16.75;;;;;;;10.72;100.00;100924.66;5003041;28;20026;-75
2022/10/08 05:01:14;;;;;;;22.55;17.05;;;;;;;10.72;100.00;100930.00;4999706;28;20033;-75
2022/10/08 05:03:42;;;;;;;20.48;16.15;;;;;;;10.76;100.00;100926.09;5010181;28;20032;-76
2022/10/08 05:06:08;;;;;;;24.08;16.70;;;;;;;10.75;100.00;100924.41;5006095;28;20382;-75
2022/10/08 05:08:34;;;;;;;23.25;16.30;;;;;;;10.66;100.00;100911.72;5005741;28;20092;-75
2022/10/08 05:10:59;;;;;;;20.80;16.17;;;;;;;10.69;100.00;100919.53;4995135;28;20444;-75
2022/10/08 05:13:25;;;;;;;20.30;15.07;;;;;;;10.83;100.00;100931.81;4991140;28;20232;-76
2022/10/08 05:15:50;;;;;;;21.63;16.30;;;;;;;10.84;100.00;100922.81;5005020;28;20137;-76
2022/10/08 05:18:16;;;;;;;22.60;16.30;;;;;;;10.90;100.00;100933.91;4992293;28;20022;-75
2022/10/08 05:20:41;;;;;;;20.17;15.10;;;;;;;10.96;100.00;100932.56;4995358;28;20040;-75
2022/10/08 05:23:07;;;;;;;23.42;16.38;;;;;;;10.94;100.00;100926.47;5000407;28;20026;-76
2022/10/08 05:25:33;;;;;;;21.38;16.00;;;;;;;11.06;100.00;100942.44;4986624;28;20542;-75
2022/10/08 05:27:59;;;;;;;18.38;15.02;;;;;;;11.01;100.00;100920.50;4982006;28;20504;-75
2022/10/08 05:30:25;;;;;;;20.05;14.98;;;;;;;11.14;100.00;100934.66;4978642;28;20471;-75
2022/10/08 05:32:50;;;;;;;20.35;15.07;;;;;;;11.17;100.00;100929.03;4980774;28;20030;-75
2022/10/08 05:35:16;;;;;;;22.10;16.15;;;;;;;11.25;100.00;100936.44;4980573;28;20026;-75
2022/10/08 05:37:41;;;;;;;20.02;15.02;;;;;;;11.32;100.00;100935.00;4985536;28;20029;-74
2022/10/08 05:40:07;;;;;;;20.23;16.20;;;;;;;11.25;100.00;100926.56;4990529;28;20030;-74
2022/10/08 05:42:32;;;;;;;19.90;15.88;;;;;;;11.40;100.00;100946.81;4990143;28;20057;-75
2022/10/08 05:44:58;;;;;;;20.40;15.07;;;;;;;11.31;100.00;100923.38;4989621;28;20048;-74
2022/10/08 05:47:23;;;;;;;19.85;16.45;;;;;;;11.49;100.00;100948.72;4989283;28;20655;-74
2022/10/08 05:49:48;;;;;;;21.27;17.25;;;;;;;11.42;100.00;100922.53;4989377;28;20459;-75
2022/10/08 05:52:14;;;;;;;22.73;15.77;;;;;;;11.55;100.00;100937.50;4989852;28;20030;-75
2022/10/08 05:54:39;;;;;;;18.98;14.88;;;;;;;11.66;100.00;100951.91;4990167;28;20038;-75
2022/10/08 05:57:05;;;;;;;20.33;16.38;;;;;;;11.74;100.00;100958.38;4989937;28;20038;-75
2022/10/08 05:59:30;;;;;;;19.58;15.27;;;;;;;11.78;100.00;100953.59;4990183;28;20030;-75
2022/10/08 06:01:55;;;;;;;21.52;15.85;;;;;;;11.84;100.00;100958.47;4988915;28;20032;-74
2022/10/08 06:04:21;;;;;;;18.50;14.85;;;;;;;11.84;100.00;100947.72;4989902;28;20130;-75
2022/10/08 06:06:50;;;;;;;19.85;15.02;;;;;;;11.96;100.00;100965.53;4987645;28;20061;-75
2022/10/08 06:09:19;;;;;;;18.85;14.75;;;;;;;11.94;100.00;100937.91;4987078;28;20037;-75
2022/10/08 06:11:45;;;;;;;19.55;14.90;;;;;;;12.10;100.00;100949.06;4999480;28;20046;-74
2022/10/08 06:14:12;;;;;;;15.73;13.52;;;;;;;12.19;100.00;100951.00;4989285;28;20034;-76
2022/10/08 06:16:38;;;;;;;20.90;15.13;;;;;;;12.27;100.00;100956.56;4989497;28;20073;-76
2022/10/08 06:19:06;;;;;;;17.15;13.57;;;;;;;12.34;100.00;100950.53;4998422;28;20425;-74
2022/10/08 06:21:32;;;;;;;16.75;14.15;;;;;;;12.45;100.00;100955.84;4999687;28;20470;-76
2022/10/08 06:24:00;;;;;;;15.65;12.85;;;;;;;12.58;100.00;100955.66;4982380;28;20054;-76
2022/10/08 06:26:29;;;;;;;19.48;13.52;;;;;;;12.58;100.00;100939.53;4978684;28;20018;-76
2022/10/08 06:28:54;;;;;;;16.98;13.27;;;;;;;12.56;100.00;100914.56;4983865;28;20038;-76
2022/10/08 06:31:20;;;;;;;17.55;13.52;;;;;;;12.89;100.00;100952.00;4969687;28;20050;-76
2022/10/08 06:33:45;;;;;;;15.63;12.45;;;;;;;12.93;100.00;100940.00;4969251;28;20034;-74
2022/10/08 06:36:23;;;;;;;17.30;12.45;;;;;;;13.12;100.00;100950.88;4968722;28;20137;-75
2022/10/08 06:38:50;;;;;;;14.57;11.52;;;;;;;13.27;100.00;100955.78;4969052;28;20046;-74
2022/10/08 06:41:15;;;;;;;17.23;12.48;;;;;;;13.36;100.00;100944.19;4983569;28;20362;-74
2022/10/08 06:43:41;;;;;;;14.40;11.07;;;;;;;13.48;100.00;100942.22;4987425;28;20138;-74
2022/10/08 06:46:06;;;;;;;18.67;12.25;;;;;;;13.63;100.00;100946.22;4986785;28;20026;-75
2022/10/08 06:48:32;;;;;;;14.52;11.02;;;;;;;13.77;100.00;100949.38;4991376;28;20057;-74
2022/10/08 06:51:00;;;;;;;14.75;10.90;;;;;;;13.93;100.00;100940.72;4987124;28;20645;-77
2022/10/08 06:53:25;;;;;;;15.77;11.40;;;;;;;14.08;99.68;100950.09;5003420;28;20049;-77
2022/10/08 06:55:58;;;;;;;15.98;11.90;;;;;;;14.25;98.79;100960.22;4992475;28;20029;-75
2022/10/08 06:58:24;;;;;;;16.40;10.70;;;;;;;14.33;97.78;100936.09;4999669;28;20029;-74
2022/10/08 07:01:09;;;;;;;12.93;10.63;;;;;;;14.60;96.22;100962.31;5001422;28;20255;-75
2022/10/08 07:03:35;;;;;;;14.45;10.82;;;;;;;14.76;94.99;100955.31;4994884;28;20034;-74
2022/10/08 07:06:06;;;;;;;16.85;10.63;;;;;;;14.95;93.92;100962.50;5006418;28;20038;-74
2022/10/08 07:08:32;;;;;;;13.23;9.93;;;;;;;15.09;93.09;100960.19;4999761;28;20014;-74
2022/10/08 07:11:06;;;;;;;17.33;10.07;;;;;;;15.38;90.76;100974.47;4998980;28;20045;-74
2022/10/08 07:13:32;;;;;;;18.73;9.82;;;;;;;15.51;89.37;100944.41;4991236;28;20029;-74
2022/10/08 07:16:25;;;;;;;16.70;10.10;;;;;;;15.87;87.71;100960.50;5007032;28;20758;-74
2022/10/08 07:18:52;;;;;;;12.45;9.02;;;;;;;16.15;86.36;100963.19;5001224;28;20473;-74
2022/10/08 07:21:19;;;;;;;15.38;9.90;;;;;;;16.44;83.45;100953.00;4995939;28;20034;-74
2022/10/08 07:23:45;;;;;;;13.52;9.30;;;;;;;16.77;81.39;100957.63;4999486;28;20034;-76
2022/10/08 07:26:13;;;;;;;11.70;9.27;;;;;;;17.10;79.27;100954.13;5011716;28;20034;-76
2022/10/08 07:28:42;;;;;;;14.52;8.98;;;;;;;17.52;77.04;100955.91;5013099;28;20454;-74
2022/10/08 07:31:12;;;;;;;17.17;9.38;;;;;;;17.99;74.43;100954.31;4999212;28;20185;-76
2022/10/08 07:33:39;;;;;;;13.48;8.80;;;;;;;18.46;71.62;100953.72;4993899;28;20034;-75
2022/10/08 07:36:10;;;;;;;10.75;8.38;;;;;;;19.02;68.53;100949.06;4995589;28;20042;-76
2022/10/08 07:38:37;;;;;;;17.05;9.27;;;;;;;19.50;65.72;100954.38;5001359;28;20045;-74
2022/10/08 07:41:02;;;;;;;12.23;8.50;;;;;;;19.87;63.33;100940.91;5011612;28;20069;-76
2022/10/08 07:43:28;;;;;;;11.00;8.27;;;;;;;20.48;61.60;100945.47;5012251;28;20057;-75
2022/10/08 07:45:53;;;;;;;10.10;7.65;;;;;;;20.91;59.78;100927.50;5009114;28;20049;-76
2022/10/08 07:48:19;;;;;;;9.82;8.48;;;;;;;21.25;58.29;100941.50;4991535;28;20031;-75
2022/10/08 07:50:45;;;;;;;13.63;8.60;;;;;;;21.47;57.51;100924.16;4990407;28;20030;-74
2022/10/08 07:53:11;;;;;;;10.82;8.90;;;;;;;21.72;56.56;100930.97;5004355;28;20409;-75
2022/10/08 07:55:36;;;;;;;13.95;8.13;;;;;;;21.84;55.96;100929.47;5010208;28;20038;-74
2022/10/08 07:58:02;;;;;;;10.90;8.23;;;;;;;22.11;55.04;100912.34;4994576;28;20037;-74
2022/10/08 08:00:27;;;;;;;9.77;7.25;;;;;;;22.31;54.19;100922.44;4988451;28;20029;-74
2022/10/08 08:02:53;;;;;;;9.25;7.00;;;;;;;22.53;53.10;100925.19;4998880;28;20397;-75
2022/10/08 08:05:19;;;;;;;10.95;7.97;;;;;;;22.77;52.07;100919.28;4995583;28;20022;-75
2022/10/08 08:07:44;;;;;;;11.25;7.18;;;;;;;22.86;52.03;100923.56;5006592;28;20038;-74
2022/10/08 08:10:10;;;;;;;11.63;7.63;;;;;;;22.87;52.04;100926.09;5003586;28;20049;-75
2022/10/08 08:12:35;;;;;;;12.45;7.50;;;;;;;22.50;52.44;100915.47;4997422;28;20030;-75
2022/10/08 08:15:00;;;;;;;15.70;7.90;;;;;;;22.24;53.70;100924.25;5005380;28;20030;-75
2022/10/08 08:17:26;;;;;;;14.20;7.78;;;;;;;21.98;54.47;100925.84;4994534;28;20030;-74
2022/10/08 08:19:51;;;;;;;14.02;7.47;;;;;;;21.54;55.16;100912.28;4993021;28;20397;-74
2022/10/08 08:22:17;;;;;;;14.07;6.57;;;;;;;21.33;56.01;100917.69;5000319;28;20068;-74
2022/10/08 08:24:42;;;;;;;8.40;7.15;;;;;;;21.27;56.44;100926.63;4998727;28;20400;-76
2022/10/08 08:27:08;;;;;;;9.40;6.95;;;;;;;21.05;57.10;100929.44;4993962;28;20022;-75
2022/10/08 08:29:33;;;;;;;10.23;6.82;;;;;;;20.88;57.69;100908.78;4988925;28;20022;-75
2022/10/08 08:31:58;;;;;;;9.82;6.88;;;;;;;20.75;58.59;100914.03;4988964;28;20026;-75
2022/10/08 08:34:24;;;;;;;10.57;7.05;;;;;;;20.75;58.86;100922.22;4992355;28;20034;-74
2022/10/08 08:36:52;;;;;;;9.60;6.95;;;;;;;20.66;58.69;100913.25;4992547;28;20389;-75
2022/10/08 08:39:21;;;;;;;8.18;6.78;;;;;;;20.67;58.42;100912.22;4994515;28;20109;-75
2022/10/08 08:41:55;;;;;;;10.95;7.10;;;;;;;20.85;58.26;100925.50;5001939;28;20627;-75
2022/10/08 08:44:23;;;;;;;;;;;;;;;20.91;58.25;100925.63;4994082;28;20557;-75
2022/10/08 08:46:57;;;;;;;11.55;7.18;;;;;;;21.11;57.71;100920.50;4993649;28;19960;-75
2022/10/08 08:49:25;;;;;;;11.90;7.50;;;;;;;21.86;55.83;100917.31;4994819;28;20037;-75
2022/10/08 08:51:52;;;;;;;14.05;7.47;;;;;;;22.88;52.98;100905.91;4993206;28;20150;-75
2022/10/08 08:54:18;;;;;;;10.05;7.40;;;;;;;23.86;50.10;100903.69;4995588;28;20100;-75
2022/10/08 08:56:43;;;;;;;9.77;7.00;;;;;;;24.92;47.77;100920.09;5004506;28;20388;-75
2022/10/08 08:59:28;;;;;;;14.27;7.10;;;;;;;25.84;44.89;100902.28;4988760;28;20070;-75
2022/10/08 09:02:00;;;;;;;10.82;6.97;;;;;;;26.70;43.35;100897.94;4990870;28;20021;-64
2022/10/08 09:04:38;;;;;;;10.50;6.75;;;;;;;27.30;41.83;100905.41;5002081;28;20048;-65
2022/10/08 09:07:07;;;;;;;12.80;6.43;;;;;;;27.40;41.02;100902.97;4992774;28;20034;-65
2022/10/08 09:09:39;;;;;;;11.05;6.65;;;;;;;27.59;40.65;100891.69;4995886;28;20845;-65
2022/10/08 09:12:35;;;;;;;12.07;6.40;;;;;;;27.79;40.59;100903.31;4992798;28;20466;-65
2022/10/08 09:15:02;;;;;;;8.75;6.10;;;;;;;28.12;39.63;100891.84;4990002;28;20764;-65
2022/10/08 09:17:38;;;;;;;9.30;5.63;;;;;;;28.32;39.45;100892.38;4995156;28;20025;-65
2022/10/08 09:20:04;;;;;;;7.25;6.00;;;;;;;28.46;39.18;100894.75;4981272;28;20142;-65
2022/10/08 09:22:36;;;;;;;11.38;5.93;;;;;;;28.46;38.55;100885.59;4991311;28;20027;-65
2022/10/08 09:25:14;;;;;;;9.45;5.38;;;;;;;28.58;38.46;100875.44;4992191;28;20054;-64
2022/10/08 09:27:54;;;;;;;9.32;5.55;;;;;;;28.64;37.81;100868.09;4988737;28;20053;-64
2022/10/08 09:30:37;;;;;;;13.20;6.43;;;;;;;28.60;38.07;100884.31;4992830;28;20121;-64
2022/10/08 09:33:15;;;;;;;9.27;5.50;;;;;;;28.48;37.84;100881.56;4993474;28;20072;-65
2022/10/08 09:35:46;;;;;;;7.05;5.28;;;;;;;28.49;38.29;100877.69;4991464;28;20549;-75
2022/10/08 09:38:26;;;;;;;8.95;5.40;;;;;;;28.52;38.22;100876.38;5003099;28;20061;-76
2022/10/08 09:41:15;;;;;;;8.40;5.30;;;;;;;28.51;38.52;100874.72;5002273;28;20038;-76
2022/10/08 09:43:40;;;;;;;10.05;5.18;;;;;;;28.62;38.39;100878.56;4972490;28;20049;-75
2022/10/08 09:46:25;;;;;;;8.82;5.75;;;;;;;28.66;38.11;100869.53;4992229;28;20057;-74
2022/10/08 09:48:51;;;;;;;10.13;5.50;;;;;;;28.71;38.07;100866.06;4991466;28;20248;-76
2022/10/08 09:51:17;;;;;;;8.73;5.60;;;;;;;28.63;38.26;100877.47;4991367;28;20043;-76
2022/10/08 09:53:57;;;;;;;7.70;5.20;;;;;;;28.39;38.45;100876.56;5000374;28;20030;-75
2022/10/08 09:56:29;;;;;;;8.52;4.95;;;;;;;28.16;38.17;100871.00;4993104;28;20099;-75
2022/10/08 09:59:01;;;;;;;10.38;5.43;;;;;;;27.93;38.66;100859.88;4992019;28;20057;-74
2022/10/08 10:01:30;;;;;;;10.10;5.30;;;;;;;28.06;39.19;100860.53;4988782;28;20489;-74
2022/10/08 10:04:01;;;;;;;5.60;5.00;;;;;;;28.21;38.67;100849.88;4991521;28;20365;-73
2022/10/08 10:06:32;;;;;;;8.10;4.55;;;;;;;28.59;37.93;100856.97;5003103;28;20053;-74
2022/10/08 10:09:10;;;;;;;8.13;4.72;;;;;;;29.05;37.09;100852.28;5003118;28;20041;-74
2022/10/08 10:11:53;;;;;;;5.80;4.40;;;;;;;29.27;36.62;100847.78;4998795;28;20046;-74
2022/10/08 10:14:24;;;;;;;7.80;4.95;;;;;;;29.51;35.93;100843.91;4993013;28;20107;-73
2022/10/08 10:17:04;;;;;;;8.80;4.28;;;;;;;29.56;35.99;100829.34;4998101;28;20038;-73
2022/10/08 10:19:38;;;;;;;7.97;5.03;;;;;;;29.84;35.48;100837.66;4987855;28;20421;-65
2022/10/08 10:22:08;;;;;;;5.93;4.57;;;;;;;29.89;35.28;100841.34;4982338;28;20038;-65
2022/10/08 10:25:11;;;;;;;6.88;4.00;;;;;;;30.07;34.57;100832.00;4991381;28;20034;-65
2022/10/08 10:27:58;;;;;;;8.98;4.90;;;;;;;29.68;35.40;100830.16;4989176;28;20517;-64
2022/10/08 10:30:24;;;;;;;10.02;4.40;;;;;;;29.54;35.92;100826.81;5003754;28;20443;-65
2022/10/08 10:32:50;;;;;;;8.73;4.95;;;;;;;28.93;36.97;100821.03;5007639;28;20184;-65
2022/10/08 10:35:48;;;;;;;7.78;4.65;;;;;;;28.05;38.44;100825.72;5003841;28;20124;-65
2022/10/08 10:38:23;;;;;;;7.63;4.38;;;;;;;27.35;39.31;100825.66;4986759;28;20137;-65
2022/10/08 10:41:10;;;;;;;6.80;4.28;;;;;;;26.66;40.68;100820.47;4995494;28;20039;-65
2022/10/08 10:43:41;;;;;;;6.57;4.88;;;;;;;26.07;42.48;100818.22;5017718;28;20104;-65
2022/10/08 10:46:49;;;;;;;9.85;5.22;;;;;;;25.43;43.51;100809.28;4995527;28;20041;-65
2022/10/08 10:49:20;;;;;;;7.43;4.57;;;;;;;25.04;43.92;100816.81;4930511;29;20569;-65
2022/10/08 10:52:23;;;;;;;9.23;5.30;;;;;;;24.68;44.93;100820.06;4989115;28;20523;-65
2022/10/08 10:55:01;;;;;;;8.73;4.85;;;;;;;24.32;46.07;100815.00;4979631;28;20078;-65
2022/10/08 10:57:51;;;;;;;6.85;4.80;;;;;;;24.03;47.13;100814.59;5002645;28;20486;-65
2022/10/08 11:00:23;;;;;;;13.20;5.40;;;;;;;23.85;47.98;100814.31;4986480;28;20038;-65
2022/10/08 11:03:12;;;;;;;6.55;4.43;;;;;;;23.68;48.17;100802.06;4993830;28;20026;-65
2022/10/08 11:05:40;;;;;;;7.25;4.53;;;;;;;23.55;48.82;100802.88;4992593;28;20037;-65
2022/10/08 11:08:37;;;;;;;6.28;4.78;;;;;;;23.34;48.76;100792.06;4998922;28;20022;-64
2022/10/08 11:11:25;;;;;;;8.60;5.00;;;;;;;23.30;49.13;100800.88;4995976;28;20070;-65
2022/10/08 11:14:22;;;;;;;6.50;4.88;;;;;;;23.16;49.10;100796.38;4994334;28;20144;-67
2022/10/08 11:16:50;;;;;;;8.20;4.28;;;;;;;23.09;49.06;100790.91;5002871;28;20046;-64
2022/10/08 11:19:38;;;;;;;10.38;4.78;;;;;;;23.01;49.63;100774.63;5002744;28;20692;-65
2022/10/08 11:22:15;;;;;;;7.57;4.40;;;;;;;22.96;49.79;100779.03;4985157;28;20053;-65
2022/10/08 11:24:54;;;;;;;6.95;4.57;;;;;;;22.89;49.53;100776.25;4995236;28;20080;-65
2022/10/08 11:27:31;;;;;;;7.25;4.65;;;;;;;22.87;49.95;100775.63;4993197;28;20034;-65
2022/10/08 11:30:13;;;;;;;6.60;4.50;;;;;;;22.85;49.86;100776.84;4983250;28;20393;-64